createdAt,value
2018-11-21T00:02:05.762Z,5.20
2018-11-21T00:04:34.523Z,5.10
2018-11-21T00:07:03.062Z,5.10
2018-11-21T00:09:31.596Z,5.10
2018-11-21T00:11:59.884Z,5.10
2018-11-21T00:14:28.801Z,5.00
2018-11-21T00:16:57.442Z,5.00
2018-11-21T00:19:25.987Z,5.10
2018-11-21T00:21:54.846Z,5.10
2018-11-21T00:24:23.960Z,5.00
2018-11-21T00:26:52.963Z,5.00
2018-11-21T00:29:21.845Z,4.90
2018-11-21T00:31:50.956Z,4.90
2018-11-21T00:34:19.890Z,5.00
2018-11-21T00:36:48.949Z,4.90
2018-11-21T00:39:17.282Z,4.90
2018-11-21T00:41:46.478Z,4.90
2018-11-21T00:44:15.051Z,5.00
2018-11-21T00:46:45.455Z,4.90
2018-11-21T00:49:13.945Z,5.00
2018-11-21T00:51:42.253Z,4.90
2018-11-21T00:54:11.560Z,4.80
2018-11-21T00:56:40.923Z,4.80
2018-11-21T00:59:10.250Z,4.90
2018-11-21T01:01:38.819Z,4.80
2018-11-21T01:04:08.246Z,4.90
2018-11-21T01:06:37.419Z,4.90
2018-11-21T01:09:08.147Z,4.80
2018-11-21T01:11:37.347Z,4.80
2018-11-21T01:14:06.043Z,4.80
2018-11-21T01:16:34.967Z,4.70
2018-11-21T01:19:03.634Z,4.80
2018-11-21T01:21:31.929Z,4.80
2018-11-21T01:24:00.708Z,4.70
2018-11-21T01:26:29.270Z,4.80
2018-11-21T01:28:57.678Z,4.90
2018-11-21T01:31:26.550Z,5.10
2018-11-21T01:33:55.434Z,4.90
2018-11-21T01:36:24.178Z,4.80
2018-11-21T01:38:53.445Z,4.80
2018-11-21T01:41:23.136Z,5.00
2018-11-21T01:43:52.040Z,5.00
2018-11-21T01:46:21.415Z,5.00
2018-11-21T01:48:52.388Z,4.90
2018-11-21T01:51:21.618Z,4.80
2018-11-21T01:53:50.362Z,4.80
2018-11-21T01:56:18.955Z,4.90
2018-11-21T01:58:48.151Z,4.90
2018-11-21T02:01:16.743Z,5.00
2018-11-21T02:03:46.345Z,4.90
2018-11-21T02:06:15.944Z,4.90
2018-11-21T02:08:45.049Z,4.90
2018-11-21T02:11:13.948Z,4.90
2018-11-21T02:13:42.625Z,4.80
2018-11-21T02:16:11.765Z,4.90
2018-11-21T02:18:41.076Z,4.90
2018-11-21T02:21:09.712Z,5.10
2018-11-21T02:23:38.259Z,5.00
2018-11-21T02:26:07.198Z,4.90
2018-11-21T02:28:36.142Z,4.90
2018-11-21T02:31:05.030Z,4.90
2018-11-21T02:33:33.597Z,4.90
2018-11-21T02:36:02.702Z,4.90
2018-11-21T02:38:31.569Z,4.90
2018-11-21T02:41:00.454Z,4.80
2018-11-21T02:43:28.701Z,4.80
2018-11-21T02:45:57.630Z,4.80
2018-11-21T02:48:26.265Z,4.70
2018-11-21T02:50:54.796Z,4.70
2018-11-21T02:53:23.374Z,4.80
2018-11-21T02:55:51.622Z,4.80
2018-11-21T02:58:20.217Z,4.70
2018-11-21T03:00:49.775Z,4.60
2018-11-21T03:03:18.810Z,4.60
2018-11-21T03:05:47.588Z,4.60
2018-11-21T03:08:16.189Z,4.70
2018-11-21T03:10:45.352Z,4.60
2018-11-21T03:13:13.954Z,4.50
2018-11-21T03:15:43.190Z,4.50
2018-11-21T03:18:12.035Z,4.60
2018-11-21T03:20:44.307Z,4.50
2018-11-21T03:23:13.190Z,4.40
2018-11-21T03:25:42.081Z,4.30
2018-11-21T03:28:11.087Z,4.30
2018-11-21T03:30:40.080Z,4.30
2018-11-21T03:33:08.563Z,4.30
2018-11-21T03:35:37.265Z,4.40
2018-11-21T03:38:06.673Z,4.40
2018-11-21T03:40:35.594Z,4.40
2018-11-21T03:43:04.530Z,4.30
2018-11-21T03:45:35.234Z,4.30
2018-11-21T03:48:04.182Z,4.40
2018-11-21T03:50:33.246Z,4.40
2018-11-21T03:53:01.879Z,4.40
2018-11-21T03:55:31.035Z,4.50
2018-11-21T03:57:59.311Z,4.50
2018-11-21T04:00:28.215Z,4.70
2018-11-21T04:02:57.288Z,4.70
2018-11-21T04:05:25.616Z,4.60
2018-11-21T04:07:54.609Z,4.50
2018-11-21T04:10:22.838Z,4.50
2018-11-21T04:12:51.719Z,4.60
2018-11-21T04:15:20.648Z,4.50
2018-11-21T04:17:49.828Z,4.40
2018-11-21T04:20:19.217Z,4.60
2018-11-21T04:22:48.376Z,4.50
2018-11-21T04:25:17.631Z,4.60
2018-11-21T04:27:49.143Z,4.50
2018-11-21T04:30:18.065Z,4.60
2018-11-21T04:32:47.671Z,4.50
2018-11-21T04:35:16.347Z,4.50
2018-11-21T04:37:45.084Z,4.40
2018-11-21T04:40:13.950Z,4.40
2018-11-21T04:42:43.059Z,4.40
2018-11-21T04:45:12.091Z,4.30
2018-11-21T04:47:43.882Z,4.30
2018-11-21T04:50:12.829Z,4.20
2018-11-21T04:52:42.629Z,4.20
2018-11-21T04:55:11.554Z,4.10
2018-11-21T04:57:43.183Z,4.00
2018-11-21T05:00:12.234Z,4.10
2018-11-21T05:02:40.553Z,3.90
2018-11-21T05:05:10.040Z,4.00
2018-11-21T05:07:39.293Z,4.10
2018-11-21T05:10:08.860Z,4.00
2018-11-21T05:12:37.373Z,4.00
2018-11-21T05:15:07.866Z,3.90
2018-11-21T05:17:36.682Z,3.90
2018-11-21T05:20:05.718Z,4.00
2018-11-21T05:22:34.377Z,3.70
2018-11-21T05:25:03.450Z,3.70
2018-11-21T05:27:32.424Z,3.70
2018-11-21T05:30:01.424Z,3.60
2018-11-21T05:32:30.064Z,3.80
2018-11-21T05:34:58.444Z,3.60
2018-11-21T05:37:27.001Z,3.50
2018-11-21T05:39:56.214Z,3.60
2018-11-21T05:42:25.188Z,3.50
2018-11-21T05:44:54.339Z,3.50
2018-11-21T05:47:23.769Z,3.50
2018-11-21T05:49:53.694Z,3.40
2018-11-21T05:52:22.135Z,3.40
2018-11-21T05:54:51.135Z,3.30
2018-11-21T05:57:19.922Z,3.10
2018-11-21T05:59:48.548Z,3.20
2018-11-21T06:02:17.961Z,2.80
2018-11-21T06:04:46.287Z,3.20
2018-11-21T06:07:15.504Z,3.10
2018-11-21T06:09:44.158Z,3.00
2018-11-21T06:12:13.767Z,3.10
2018-11-21T06:14:42.690Z,3.10
2018-11-21T06:17:11.442Z,3.10
2018-11-21T06:19:40.072Z,3.00
2018-11-21T06:22:09.575Z,2.90
2018-11-21T06:24:38.378Z,2.90
2018-11-21T06:27:07.041Z,2.90
2018-11-21T06:29:36.224Z,2.90
2018-11-21T06:32:05.565Z,2.60
2018-11-21T06:34:34.667Z,2.50
2018-11-21T06:37:03.572Z,2.40
2018-11-21T06:39:31.953Z,2.60
2018-11-21T06:42:00.731Z,2.50
2018-11-21T06:44:30.079Z,2.50
2018-11-21T06:46:59.933Z,2.40
2018-11-21T06:49:28.557Z,2.20
2018-11-21T06:51:56.930Z,2.20
2018-11-21T06:54:26.265Z,2.30
2018-11-21T06:56:55.411Z,2.30
2018-11-21T06:59:24.004Z,2.30
2018-11-21T07:01:52.507Z,2.40
2018-11-21T07:04:21.307Z,2.40
2018-11-21T07:06:50.542Z,2.40
2018-11-21T07:09:19.849Z,2.20
2018-11-21T07:11:49.297Z,2.20
2018-11-21T07:14:19.153Z,2.20
2018-11-21T07:16:48.396Z,2.30
2018-11-21T07:19:20.676Z,2.30
2018-11-21T07:21:49.693Z,2.30
2018-11-21T07:24:18.881Z,2.20
2018-11-21T07:26:48.591Z,2.30
2018-11-21T07:29:17.067Z,2.30
2018-11-21T07:31:45.506Z,2.40
2018-11-21T07:34:14.673Z,2.20
2018-11-21T07:36:49.445Z,2.20
2018-11-21T07:39:18.162Z,2.10
2018-11-21T07:41:46.954Z,2.20
2018-11-21T07:44:16.037Z,2.30
2018-11-21T07:46:45.167Z,2.40
2018-11-21T07:49:13.847Z,2.50
2018-11-21T07:51:42.975Z,2.40
2018-11-21T07:54:12.434Z,2.50
2018-11-21T07:57:20.625Z,2.60
2018-11-21T08:00:56.933Z,2.50
2018-11-21T08:03:27.997Z,2.60
2018-11-21T08:06:08.465Z,2.50
2018-11-21T08:09:07.659Z,2.60
2018-11-21T08:11:55.116Z,2.50
2018-11-21T08:14:45.908Z,2.50
2018-11-21T08:17:32.248Z,2.50
2018-11-21T08:20:38.670Z,2.50
2018-11-21T08:23:25.618Z,2.20
2018-11-21T08:26:21.133Z,2.40
2018-11-21T08:28:50.114Z,2.50
2018-11-21T08:31:19.640Z,2.60
2018-11-21T08:33:48.387Z,2.60
2018-11-21T08:36:17.109Z,2.50
2018-11-21T08:38:45.896Z,2.70
2018-11-21T08:41:14.934Z,2.60
2018-11-21T08:43:44.193Z,2.50
2018-11-21T08:46:13.143Z,2.60
2018-11-21T08:48:41.782Z,2.80
2018-11-21T08:51:10.495Z,2.90
2018-11-21T08:53:39.720Z,2.90
2018-11-21T08:56:09.412Z,3.00
2018-11-21T08:58:39.062Z,3.00
2018-11-21T09:01:07.656Z,2.90
2018-11-21T09:03:36.311Z,3.10
2018-11-21T09:06:05.892Z,3.20
2018-11-21T09:08:34.902Z,3.20
2018-11-21T09:11:03.553Z,3.40
2018-11-21T09:13:32.501Z,3.40
2018-11-21T09:16:01.891Z,3.60
2018-11-21T09:18:30.536Z,3.90
2018-11-21T09:20:59.448Z,4.20
2018-11-21T09:23:28.144Z,4.40
2018-11-21T09:25:57.593Z,4.50
2018-11-21T09:28:25.950Z,4.60
2018-11-21T09:30:54.572Z,4.60
2018-11-21T09:33:22.874Z,4.70
2018-11-21T09:35:52.404Z,4.60
2018-11-21T09:38:21.153Z,4.50
2018-11-21T09:40:49.699Z,4.40
2018-11-21T09:43:18.596Z,4.60
2018-11-21T09:45:47.527Z,4.70
2018-11-21T09:48:16.769Z,4.70
2018-11-21T09:50:46.082Z,4.80
2018-11-21T09:53:15.349Z,4.80
2018-11-21T09:55:46.134Z,4.90
2018-11-21T09:58:15.975Z,5.00
2018-11-21T10:01:21.166Z,5.10
2018-11-21T10:03:50.020Z,5.40
2018-11-21T10:06:31.007Z,5.60
2018-11-21T10:09:05.179Z,5.80
2018-11-21T10:11:35.273Z,5.70
2018-11-21T10:14:04.619Z,5.70
2018-11-21T10:16:33.658Z,5.80
2018-11-21T10:19:03.657Z,5.70
2018-11-21T10:21:36.131Z,5.90
2018-11-21T10:24:09.315Z,5.90
2018-11-21T10:26:38.715Z,6.10
2018-11-21T10:29:07.678Z,6.00
2018-11-21T10:31:36.798Z,6.20
2018-11-21T10:34:09.302Z,6.40
2018-11-21T10:36:41.038Z,6.70
2018-11-21T10:39:10.857Z,6.70
2018-11-21T10:41:40.347Z,6.70
2018-11-21T10:44:08.744Z,6.80
2018-11-21T10:46:43.518Z,6.60
2018-11-21T10:49:12.696Z,6.40
2018-11-21T10:51:41.034Z,5.80
2018-11-21T10:54:10.181Z,6.20
2018-11-21T10:56:39.494Z,6.20
2018-11-21T10:59:08.404Z,6.10
2018-11-21T11:01:54.558Z,5.90
2018-11-21T11:04:26.723Z,6.00
2018-11-21T11:07:29.478Z,6.30
2018-11-21T11:10:15.789Z,6.20
2018-11-21T11:12:53.479Z,6.50
2018-11-21T11:15:52.882Z,6.50
2018-11-21T11:18:47.543Z,6.60
2018-11-21T11:21:53.560Z,6.10
2018-11-21T11:24:39.997Z,6.40
2018-11-21T11:27:26.570Z,6.20
2018-11-21T11:30:26.942Z,6.60
2018-11-21T11:33:20.683Z,6.70
2018-11-21T11:36:08.959Z,6.60
2018-11-21T11:38:59.963Z,6.80
2018-11-21T11:41:47.512Z,7.20
2018-11-21T11:44:50.241Z,7.40
2018-11-21T11:47:47.136Z,6.70
2018-11-21T11:50:50.087Z,6.70
2018-11-21T11:53:49.980Z,6.60
2018-11-21T11:56:54.345Z,6.90
2018-11-21T11:59:33.709Z,6.80
2018-11-21T12:02:26.396Z,6.90
2018-11-21T12:05:06.346Z,6.90
2018-11-21T12:08:09.197Z,6.80
2018-11-21T12:10:56.087Z,7.00
2018-11-21T12:13:46.858Z,7.10
2018-11-21T12:16:33.300Z,7.10
2018-11-21T12:19:27.133Z,7.20
2018-11-21T12:22:21.715Z,7.00
2018-11-21T12:25:04.432Z,6.80
2018-11-21T12:27:49.577Z,7.00
2018-11-21T12:30:37.745Z,7.00
2018-11-21T12:33:20.684Z,6.90
2018-11-21T12:36:22.764Z,6.80
2018-11-21T12:39:27.003Z,6.70
2018-11-21T12:42:14.231Z,6.70
2018-11-21T12:45:01.126Z,6.70
2018-11-21T12:47:49.256Z,6.60
2018-11-21T12:50:40.198Z,6.80
2018-11-21T12:53:23.212Z,6.80
2018-11-21T12:56:09.279Z,6.70
2018-11-21T12:58:55.553Z,6.70
2018-11-21T13:01:52.371Z,6.70
2018-11-21T13:04:50.046Z,6.60
2018-11-21T13:07:36.636Z,6.60
2018-11-21T13:10:36.765Z,6.60
2018-11-21T13:13:41.261Z,6.70
2018-11-21T13:16:24.617Z,6.50
2018-11-21T13:19:11.162Z,6.30
2018-11-21T13:21:57.486Z,6.20
2018-11-21T13:24:54.429Z,6.10
2018-11-21T13:27:37.490Z,6.10
2018-11-21T13:30:17.957Z,6.10
2018-11-21T13:33:05.717Z,6.20
2018-11-21T13:36:08.874Z,6.10
2018-11-21T13:38:59.649Z,6.10
2018-11-21T13:41:53.283Z,6.80
2018-11-21T13:44:34.895Z,6.90
2018-11-21T13:47:12.264Z,6.90
2018-11-21T13:50:00.429Z,6.80
2018-11-21T13:52:39.100Z,6.70
2018-11-21T13:55:08.726Z,6.90
2018-11-21T13:57:37.638Z,6.60
2018-11-21T14:00:09.467Z,6.50
2018-11-21T14:02:47.805Z,6.20
2018-11-21T14:05:18.050Z,6.10
2018-11-21T14:07:48.303Z,6.10
2018-11-21T14:10:18.797Z,6.10
2018-11-21T14:12:51.854Z,6.10
2018-11-21T14:15:21.922Z,6.00
2018-11-21T14:17:51.182Z,6.00
2018-11-21T14:20:20.026Z,6.00
2018-11-21T14:22:49.262Z,6.00
2018-11-21T14:25:18.153Z,6.00
2018-11-21T14:27:46.948Z,5.90
2018-11-21T14:30:16.304Z,5.90
2018-11-21T14:32:44.782Z,6.00
2018-11-21T14:35:17.397Z,6.00
2018-11-21T14:37:47.666Z,6.00
2018-11-21T14:40:18.545Z,6.10
2018-11-21T14:42:49.324Z,6.00
2018-11-21T14:45:20.736Z,5.70
2018-11-21T14:47:52.059Z,5.50
2018-11-21T14:50:39.111Z,5.50
2018-11-21T14:53:03.810Z,5.40
2018-11-21T14:55:42.313Z,5.40
2018-11-21T14:58:13.403Z,5.50
2018-11-21T15:00:43.376Z,5.50
2018-11-21T15:03:18.245Z,5.50
2018-11-21T15:05:43.215Z,5.50
2018-11-21T15:08:13.498Z,5.60
2018-11-21T15:10:44.239Z,5.60
2018-11-21T15:13:12.920Z,5.70
2018-11-21T15:15:42.402Z,5.70
2018-11-21T15:18:12.611Z,5.70
2018-11-21T15:20:41.537Z,5.80
2018-11-21T15:23:13.394Z,5.70
2018-11-21T15:25:42.643Z,5.80
2018-11-21T15:28:11.229Z,5.80
2018-11-21T15:30:39.953Z,5.70
2018-11-21T15:33:09.291Z,5.70
2018-11-21T15:35:38.213Z,5.80
2018-11-21T15:38:06.807Z,5.80
2018-11-21T15:40:35.203Z,5.90
2018-11-21T15:43:04.370Z,5.80
2018-11-21T15:45:32.712Z,5.90
2018-11-21T15:48:01.976Z,5.90
2018-11-21T15:50:32.121Z,5.90
2018-11-21T15:53:01.180Z,5.80
2018-11-21T15:55:30.072Z,5.80
2018-11-21T15:57:58.742Z,5.90
2018-11-21T16:00:30.082Z,5.90
2018-11-21T16:03:01.248Z,6.00
2018-11-21T16:05:30.095Z,6.00
2018-11-21T16:08:03.303Z,6.10
2018-11-21T16:10:44.395Z,6.10
2018-11-21T16:13:13.302Z,6.00
2018-11-21T16:15:50.039Z,6.00
2018-11-21T16:18:19.588Z,6.00
2018-11-21T16:20:48.156Z,6.00
2018-11-21T16:23:17.463Z,5.80
2018-11-21T16:25:45.807Z,6.00
2018-11-21T16:28:14.330Z,5.80
2018-11-21T16:30:42.590Z,5.90
2018-11-21T16:33:11.604Z,5.90
2018-11-21T16:35:40.235Z,5.90
2018-11-21T16:38:09.774Z,6.00
2018-11-21T16:40:38.987Z,5.90
2018-11-21T16:43:07.587Z,5.90
2018-11-21T16:45:38.156Z,6.00
2018-11-21T16:48:06.490Z,5.90
2018-11-21T16:50:35.561Z,5.70
2018-11-21T16:53:04.148Z,5.60
2018-11-21T16:55:33.029Z,5.80
2018-11-21T16:58:02.563Z,5.80
2018-11-21T17:00:32.038Z,5.50
2018-11-21T17:03:01.995Z,5.30
2018-11-21T17:05:30.666Z,5.30
2018-11-21T17:07:59.571Z,5.40
2018-11-21T17:10:31.998Z,5.50
2018-11-21T17:13:01.037Z,5.50
2018-11-21T17:15:33.699Z,5.20
2018-11-21T17:18:02.949Z,5.30
2018-11-21T17:20:36.487Z,5.20
2018-11-21T17:23:05.163Z,5.00
2018-11-21T17:25:35.180Z,5.00
2018-11-21T17:28:03.991Z,5.00
2018-11-21T17:30:32.195Z,5.10
2018-11-21T17:33:00.518Z,5.10
2018-11-21T17:35:29.678Z,4.90
2018-11-21T17:38:01.852Z,5.00
2018-11-21T17:40:29.405Z,5.10
2018-11-21T17:42:58.509Z,5.00
2018-11-21T17:45:27.556Z,5.00
2018-11-21T17:47:56.130Z,4.90
2018-11-21T17:50:24.983Z,5.10
2018-11-21T17:52:55.056Z,5.40
2018-11-21T17:55:24.975Z,5.30
2018-11-21T17:57:53.937Z,5.20
2018-11-21T18:00:24.300Z,5.30
2018-11-21T18:02:53.316Z,5.30
2018-11-21T18:05:27.141Z,5.30
2018-11-21T18:07:56.073Z,5.40
2018-11-21T18:10:26.005Z,5.50
2018-11-21T18:12:54.722Z,5.30
2018-11-21T18:15:23.511Z,5.30
2018-11-21T18:17:52.988Z,5.20
2018-11-21T18:20:21.932Z,5.30
2018-11-21T18:22:51.808Z,5.20
2018-11-21T18:25:22.911Z,5.20
2018-11-21T18:27:52.314Z,5.30
2018-11-21T18:30:22.117Z,5.30
2018-11-21T18:32:50.812Z,5.30
2018-11-21T18:35:21.144Z,5.60
2018-11-21T18:37:49.802Z,5.60
2018-11-21T18:40:19.956Z,5.60
2018-11-21T18:42:48.739Z,5.50
2018-11-21T18:45:22.807Z,5.50
2018-11-21T18:47:52.099Z,5.60
2018-11-21T18:50:21.831Z,5.70
2018-11-21T18:52:51.930Z,5.60
2018-11-21T18:55:22.316Z,5.70
2018-11-21T18:58:28.575Z,5.60
2018-11-21T19:00:56.902Z,5.60
2018-11-21T19:03:25.521Z,5.60
2018-11-21T19:05:53.866Z,5.50
2018-11-21T19:08:23.494Z,5.60
2018-11-21T19:10:53.184Z,5.60
2018-11-21T19:13:22.667Z,5.80
2018-11-21T19:15:51.332Z,5.80
2018-11-21T19:18:19.921Z,5.70
2018-11-21T19:20:48.485Z,5.80
2018-11-21T19:23:17.195Z,5.80
2018-11-21T19:25:46.165Z,5.80
2018-11-21T19:28:14.577Z,5.60
2018-11-21T19:30:43.207Z,5.80
2018-11-21T19:33:11.929Z,5.80
2018-11-21T19:35:40.186Z,5.90
2018-11-21T19:38:09.034Z,6.00
2018-11-21T19:40:37.925Z,6.00
2018-11-21T19:43:07.068Z,6.00
2018-11-21T19:45:35.935Z,6.10
2018-11-21T19:48:04.328Z,5.90
2018-11-21T19:50:33.874Z,5.90
2018-11-21T19:53:02.597Z,6.00
2018-11-21T19:55:33.766Z,6.00
2018-11-21T19:58:03.293Z,6.10
2018-11-21T20:00:35.687Z,6.00
2018-11-21T20:03:04.945Z,5.90
2018-11-21T20:05:34.181Z,6.00
2018-11-21T20:08:04.136Z,6.00
2018-11-21T20:10:34.623Z,6.10
2018-11-21T20:13:03.526Z,6.10
2018-11-21T20:15:32.757Z,6.10
2018-11-21T20:18:02.489Z,6.20
2018-11-21T20:20:31.693Z,6.20
2018-11-21T20:23:06.303Z,6.20
2018-11-21T20:25:29.183Z,6.00
2018-11-21T20:27:57.892Z,6.00
2018-11-21T20:30:28.446Z,5.90
2018-11-21T20:32:58.120Z,5.90
2018-11-21T20:35:27.144Z,5.80
2018-11-21T20:37:55.600Z,5.90
2018-11-21T20:40:26.698Z,5.80
2018-11-21T20:42:55.235Z,5.90
2018-11-21T20:45:26.093Z,6.00
2018-11-21T20:47:55.651Z,5.90
2018-11-21T20:50:24.550Z,6.00
2018-11-21T20:52:53.839Z,6.00
2018-11-21T20:55:24.369Z,6.00
2018-11-21T20:57:52.981Z,6.00
2018-11-21T21:00:22.953Z,6.00
2018-11-21T21:02:51.522Z,5.80
2018-11-21T21:05:21.864Z,5.90
2018-11-21T21:07:51.237Z,6.00
2018-11-21T21:10:21.644Z,6.00
2018-11-21T21:12:53.687Z,6.00
2018-11-21T21:15:22.917Z,6.00
2018-11-21T21:17:52.079Z,6.20
2018-11-21T21:20:22.316Z,6.10
2018-11-21T21:22:55.403Z,6.00
2018-11-21T21:25:26.093Z,6.00
2018-11-21T21:27:54.712Z,6.10
2018-11-21T21:30:28.632Z,5.90
2018-11-21T21:32:58.297Z,6.00
2018-11-21T21:35:28.894Z,5.90
2018-11-21T21:37:57.773Z,6.00
2018-11-21T21:40:26.893Z,6.10
2018-11-21T21:42:55.164Z,6.00
2018-11-21T21:45:25.860Z,6.00
2018-11-21T21:48:16.194Z,6.00
2018-11-21T21:50:49.143Z,6.10
2018-11-21T21:53:29.553Z,6.20
2018-11-21T21:56:42.913Z,6.30
2018-11-21T21:59:13.003Z,6.40
2018-11-21T22:02:00.244Z,6.30
2018-11-21T22:04:41.434Z,6.20
2018-11-21T22:07:11.281Z,6.20
2018-11-21T22:15:03.714Z,6.00
2018-11-21T22:17:32.006Z,6.00
2018-11-21T22:20:00.391Z,6.10
2018-11-21T22:22:29.281Z,6.10
2018-11-21T22:24:58.350Z,6.20
2018-11-21T22:27:27.172Z,6.10
2018-11-21T22:29:55.817Z,6.10
2018-11-21T22:32:24.403Z,5.90
2018-11-21T22:34:53.625Z,6.00
2018-11-21T22:37:22.318Z,6.10
2018-11-21T22:39:51.151Z,6.20
2018-11-21T22:42:20.655Z,6.20
2018-11-21T22:47:51.316Z,6.20
2018-11-21T22:50:53.911Z,6.30
2018-11-21T22:53:22.893Z,6.30
2018-11-21T22:55:51.624Z,6.30
2018-11-21T22:58:20.182Z,6.30
2018-11-21T23:00:50.378Z,6.20
2018-11-21T23:03:19.470Z,6.20
2018-11-21T23:05:47.868Z,6.30
2018-11-21T23:08:16.169Z,6.30
2018-11-21T23:10:45.143Z,6.30
2018-11-21T23:13:13.797Z,6.30
2018-11-21T23:15:43.413Z,6.40
2018-11-21T23:18:11.749Z,6.40
2018-11-21T23:20:40.155Z,6.40
2018-11-21T23:23:09.129Z,6.30
2018-11-21T23:25:38.312Z,6.30
2018-11-21T23:28:06.988Z,6.40
2018-11-21T23:30:35.386Z,6.40
2018-11-21T23:33:04.371Z,6.40
2018-11-21T23:35:33.426Z,6.40
2018-11-21T23:38:01.812Z,6.40
2018-11-21T23:40:30.717Z,6.50
2018-11-21T23:42:59.420Z,6.50
2018-11-21T23:45:27.717Z,6.50
2018-11-21T23:47:56.681Z,6.50
2018-11-21T23:50:25.371Z,6.50
2018-11-21T23:52:54.572Z,6.50
2018-11-21T23:55:22.925Z,6.50
2018-11-21T23:57:51.679Z,6.50
